Time;durP1;ratioP1;P1;durP2;ratioP2;P2;SDS_P1;SDS_P2;PMS_P1;PMS_P2;Temp;Humidity;BMP_temperature;BMP_pressure;BME280_temperature;BME280_humidity;BME280_pressure;Samples;Min_cycle;Max_cycle;Signal;HPM_P1;HPM_P2
2022/01/07 00:05:48;;;;;;;19.02;8.65;;;;;;;-1.10;67.78;100869.05;1388775;89;21365;-85
2022/01/07 00:08:47;;;;;;;20.48;8.05;;;;;;;-1.24;69.22;100869.61;1376735;91;22414;-84
2022/01/07 00:11:17;;;;;;;14.58;5.33;;;;;;;-1.33;71.45;100876.47;1396401;89;21588;-84
2022/01/07 00:14:37;;;;;;;;;;;;;;;;;;;;;
2022/01/07 00:17:26;;;;;;;7.03;2.72;;;;;;;-1.44;70.02;100889.87;1399208;88;21431;-85
2022/01/07 00:20:10;;;;;;;3.92;2.55;;;;;;;-1.51;68.55;100887.13;1414780;88;21422;-85
2022/01/07 00:22:38;;;;;;;6.87;3.42;;;;;;;-1.55;67.56;100887.71;1418205;89;21392;-85
2022/01/07 00:25:06;;;;;;;5.12;2.50;;;;;;;-1.55;67.88;100891.61;1387368;91;21482;-83
2022/01/07 00:27:32;;;;;;;7.08;3.00;;;;;;;-1.53;66.43;100898.02;1424827;91;21452;-85
2022/01/07 00:29:59;;;;;;;10.13;3.40;;;;;;;-1.49;67.76;100904.34;1414835;90;21341;-86
2022/01/07 00:32:25;;;;;;;12.03;3.47;;;;;;;-1.46;67.69;100912.02;1379069;91;22235;-85
2022/01/07 00:34:51;;;;;;;10.45;3.45;;;;;;;-1.43;67.89;100911.05;1405211;90;21542;-86
2022/01/07 00:37:18;;;;;;;9.55;3.90;;;;;;;-1.46;67.53;100918.50;1418296;90;21357;-85
2022/01/07 00:39:45;;;;;;;6.87;3.20;;;;;;;-1.44;67.38;100921.02;1447219;89;21422;-84
2022/01/07 00:42:12;;;;;;;11.65;2.62;;;;;;;-1.44;67.80;100910.21;1454144;88;21377;-85
2022/01/07 00:44:38;;;;;;;7.78;3.25;;;;;;;-1.44;67.99;100923.19;1480283;89;21274;-85
2022/01/07 00:47:05;;;;;;;6.83;2.95;;;;;;;-1.45;67.22;100925.83;1440142;89;22209;-85
2022/01/07 00:49:32;;;;;;;11.53;4.33;;;;;;;-1.44;67.51;100937.47;1421012;89;22360;-85
2022/01/07 00:51:59;;;;;;;8.45;3.55;;;;;;;-1.43;67.94;100939.61;1423276;88;21326;-85
2022/01/07 00:54:26;;;;;;;9.58;4.42;;;;;;;-1.43;68.14;100938.31;1409038;89;21348;-85
2022/01/07 00:56:52;;;;;;;5.33;2.87;;;;;;;-1.46;68.56;100934.54;1420145;90;21502;-85
2022/01/07 00:59:18;;;;;;;11.83;5.05;;;;;;;-1.49;68.91;100930.77;1430332;90;21334;-85
2022/01/07 01:01:44;;;;;;;16.07;6.45;;;;;;;-1.53;69.03;100939.09;1399732;90;21542;-84
2022/01/07 01:04:10;;;;;;;23.55;8.40;;;;;;;-1.55;68.92;100943.52;1429150;90;21416;-84
2022/01/07 01:06:40;;;;;;;15.58;5.60;;;;;;;-1.57;69.00;100940.12;1430373;91;21354;-85
2022/01/07 01:09:04;;;;;;;16.77;6.95;;;;;;;-1.60;69.15;100949.33;1464709;90;21517;-85
2022/01/07 01:11:31;;;;;;;17.85;5.72;;;;;;;-1.67;69.11;100947.42;1426840;88;21332;-84
2022/01/07 01:13:57;;;;;;;10.30;4.33;;;;;;;-1.71;69.18;100952.77;1410152;88;22260;-85
2022/01/07 01:16:23;;;;;;;11.53;4.20;;;;;;;-1.74;69.23;100955.48;1420212;88;21372;-84
2022/01/07 01:18:49;;;;;;;12.23;5.55;;;;;;;-1.75;69.73;100953.80;1447331;88;21391;-84
2022/01/07 01:21:15;;;;;;;16.40;4.42;;;;;;;-1.77;69.66;100965.98;1417117;87;21474;-84
2022/01/07 01:23:45;;;;;;;9.58;3.70;;;;;;;-1.80;70.35;100973.88;1405148;88;21532;-83
2022/01/07 01:26:10;;;;;;;7.92;3.40;;;;;;;-1.85;70.23;100974.03;1436462;88;22494;-83
2022/01/07 01:28:36;;;;;;;7.00;3.60;;;;;;;-1.92;70.33;100973.41;1452371;88;21445;-83
2022/01/07 01:31:02;;;;;;;8.95;3.83;;;;;;;-1.97;70.06;100971.88;1419379;88;21385;-85
2022/01/07 01:33:29;;;;;;;12.82;3.67;;;;;;;-1.98;70.04;100971.05;1448757;87;22784;-85
2022/01/07 01:35:55;;;;;;;7.70;3.60;;;;;;;-2.01;70.71;100977.64;1455657;88;21457;-86
2022/01/07 01:38:21;;;;;;;10.35;5.12;;;;;;;-2.05;70.68;100976.88;1436394;88;21383;-83
2022/01/07 01:40:47;;;;;;;9.68;4.65;;;;;;;-2.09;71.62;100978.35;1426535;88;21341;-82
2022/01/07 01:43:13;;;;;;;10.95;5.12;;;;;;;-2.12;71.91;100984.95;1431344;88;21334;-83
2022/01/07 01:45:40;;;;;;;9.55;4.60;;;;;;;-2.17;71.12;100978.61;1436049;88;22182;-83
2022/01/07 01:48:06;;;;;;;9.98;3.65;;;;;;;-2.18;70.99;100973.03;1436974;87;21397;-83
2022/01/07 01:50:32;;;;;;;11.60;4.50;;;;;;;-2.16;70.25;100974.27;1436311;88;21495;-82
2022/01/07 01:52:58;;;;;;;9.93;4.03;;;;;;;-2.12;70.38;100982.35;1437473;88;22368;-82
2022/01/07 01:55:27;;;;;;;11.28;4.55;;;;;;;-2.07;70.64;100984.34;1438748;88;21391;-83
2022/01/07 01:57:55;;;;;;;9.88;4.25;;;;;;;-2.06;70.60;100990.75;1425626;88;21349;-82
2022/01/07 02:00:25;;;;;;;10.65;4.33;;;;;;;-2.05;70.45;100996.78;1448123;88;21295;-82
2022/01/07 02:02:51;;;;;;;8.35;3.45;;;;;;;-2.06;70.33;101001.59;1448163;88;21531;-82
2022/01/07 02:05:17;;;;;;;10.88;3.10;;;;;;;-2.08;70.61;101002.08;1442096;88;21438;-82
2022/01/07 02:07:45;;;;;;;11.40;3.80;;;;;;;-2.09;70.50;100997.80;1433185;88;21364;-82
2022/01/07 02:10:14;;;;;;;7.17;3.40;;;;;;;-2.12;70.28;101001.80;1433073;88;21363;-82
2022/01/07 02:12:42;;;;;;;7.58;3.90;;;;;;;-2.12;70.52;101000.50;1439238;88;21334;-84
2022/01/07 02:15:11;;;;;;;12.93;3.65;;;;;;;-2.16;70.41;101001.04;1428235;87;21393;-85
2022/01/07 02:17:42;;;;;;;13.25;4.10;;;;;;;-2.18;70.73;100999.42;1420324;88;21502;-84
2022/01/07 02:20:09;;;;;;;5.72;3.27;;;;;;;-2.22;70.79;101003.00;1403494;88;22392;-86
2022/01/07 02:22:35;;;;;;;9.75;4.00;;;;;;;-2.25;70.82;101010.89;1407586;88;21383;-85
2022/01/07 02:25:02;;;;;;;9.68;3.70;;;;;;;-2.31;70.94;101014.08;1395581;88;21427;-84
2022/01/07 02:27:30;;;;;;;10.45;3.60;;;;;;;-2.35;71.14;101011.20;1393345;88;22307;-85
2022/01/07 02:29:59;;;;;;;6.10;3.35;;;;;;;-2.36;70.95;101013.41;1400523;88;22238;-85
2022/01/07 02:32:25;;;;;;;9.35;4.42;;;;;;;-2.37;71.02;101011.69;1373496;90;21291;-86
2022/01/07 02:34:51;;;;;;;7.37;3.73;;;;;;;-2.41;71.95;101024.38;1363437;90;21295;-85
2022/01/07 02:37:17;;;;;;;8.93;4.25;;;;;;;-2.48;72.30;101025.45;1382952;90;22572;-85
2022/01/07 02:39:45;;;;;;;13.15;4.33;;;;;;;-2.55;73.18;101016.20;1337190;91;21434;-85
2022/01/07 02:42:11;;;;;;;11.30;4.12;;;;;;;-2.59;73.66;101015.88;1390304;90;22729;-85
2022/01/07 02:44:38;;;;;;;8.13;3.55;;;;;;;-2.61;73.26;101019.83;1359707;90;21489;-85
2022/01/07 02:47:04;;;;;;;8.70;4.03;;;;;;;-2.60;72.96;101020.67;1350358;91;21482;-83
2022/01/07 02:49:30;;;;;;;10.70;4.10;;;;;;;-2.60;72.82;101024.11;1428049;88;21338;-85
2022/01/07 02:51:57;;;;;;;9.75;3.33;;;;;;;-2.61;72.67;101026.31;1404063;87;21323;-83
2022/01/07 02:54:23;;;;;;;9.15;3.95;;;;;;;-2.60;72.56;101025.86;1418927;88;21571;-81
2022/01/07 02:56:49;;;;;;;8.03;3.67;;;;;;;-2.65;73.42;101016.92;1442198;88;21479;-82
2022/01/07 02:59:15;;;;;;;15.13;4.35;;;;;;;-2.69;74.12;101013.20;1451611;88;21597;-82
2022/01/07 03:01:42;;;;;;;10.63;3.22;;;;;;;-2.76;74.52;101014.70;1443438;88;21486;-81
2022/01/07 03:04:08;;;;;;;8.03;3.47;;;;;;;-2.80;73.47;101014.38;1422493;88;21413;-81
2022/01/07 03:06:35;;;;;;;10.35;4.12;;;;;;;-2.84;72.24;101015.83;1388204;88;21304;-82
2022/01/07 03:09:04;;;;;;;9.70;3.15;;;;;;;-2.78;72.15;101015.64;1413269;87;21464;-82
2022/01/07 03:11:30;;;;;;;8.60;3.60;;;;;;;-2.70;72.09;101024.44;1422052;88;21346;-82
2022/01/07 03:13:58;;;;;;;9.00;4.12;;;;;;;-2.65;72.08;101019.52;1402492;88;21435;-82
2022/01/07 03:16:24;;;;;;;9.08;3.30;;;;;;;-2.62;72.00;101018.16;1398401;88;21376;-82
2022/01/07 03:18:51;;;;;;;8.38;4.00;;;;;;;-2.61;72.01;101018.54;1438552;88;21342;-82
2022/01/07 03:21:17;;;;;;;11.65;3.83;;;;;;;-2.60;71.95;101024.56;1429242;88;21305;-83
2022/01/07 03:23:45;;;;;;;7.62;3.33;;;;;;;-2.60;71.94;101026.70;1456710;88;22678;-83
2022/01/07 03:26:12;;;;;;;9.40;3.92;;;;;;;-2.62;71.93;101038.01;1428822;88;21483;-83
2022/01/07 03:28:44;;;;;;;11.22;4.92;;;;;;;-2.66;71.74;101035.12;1440623;89;21392;-83
2022/01/07 03:31:07;;;;;;;15.15;5.47;;;;;;;-2.70;71.90;101035.68;1471296;88;21414;-83
2022/01/07 03:33:33;;;;;;;17.48;6.10;;;;;;;-2.73;71.95;101037.92;1400013;88;21459;-82
2022/01/07 03:36:00;;;;;;;13.35;5.53;;;;;;;-2.74;72.21;101040.09;1409015;87;21334;-82
2022/01/07 03:38:26;;;;;;;14.65;6.85;;;;;;;-2.75;72.56;101042.29;1385359;88;21626;-82
2022/01/07 03:40:52;;;;;;;11.10;4.75;;;;;;;-2.78;72.53;101041.55;1433588;88;21448;-81
2022/01/07 03:43:18;;;;;;;13.58;5.37;;;;;;;-2.80;72.53;101048.05;1423352;88;22351;-82
2022/01/07 03:45:45;;;;;;;20.05;5.62;;;;;;;-2.85;72.36;101044.78;1439386;88;21422;-82
2022/01/07 03:48:11;;;;;;;12.65;5.28;;;;;;;-2.88;72.74;101050.03;1399411;87;21413;-87
2022/01/07 03:50:37;;;;;;;13.30;4.45;;;;;;;-2.92;72.88;101049.73;1439752;87;22265;-85
2022/01/07 03:53:04;;;;;;;12.00;6.00;;;;;;;-2.97;73.37;101057.63;1445537;87;21421;-86
2022/01/07 03:55:31;;;;;;;10.93;5.03;;;;;;;-3.03;73.99;101045.33;1422941;89;21452;-85
2022/01/07 03:57:58;;;;;;;17.35;5.92;;;;;;;-3.08;74.91;101043.31;1381775;90;21350;-85
2022/01/07 04:00:33;;;;;;;10.78;5.60;;;;;;;-3.09;74.38;101044.22;1354384;90;21468;-85
2022/01/07 04:03:06;;;;;;;16.37;6.35;;;;;;;-3.08;74.46;101054.97;1455621;89;22435;-82
2022/01/07 04:05:32;;;;;;;10.32;4.67;;;;;;;-3.08;74.36;101060.14;1485590;89;22327;-81
2022/01/07 04:07:59;;;;;;;13.62;5.12;;;;;;;-3.11;74.03;101061.53;1465875;89;21422;-81
2022/01/07 04:10:25;;;;;;;12.25;4.92;;;;;;;-3.14;74.09;101067.64;1484327;90;21416;-83
2022/01/07 04:12:51;;;;;;;12.47;4.58;;;;;;;-3.19;74.56;101056.14;1430120;89;21343;-82
2022/01/07 04:15:21;;;;;;;15.00;6.15;;;;;;;-3.18;74.38;101056.98;1432588;89;21507;-83
2022/01/07 04:17:50;;;;;;;10.70;5.47;;;;;;;-3.21;74.92;101061.80;1417550;89;21428;-85
2022/01/07 04:20:21;;;;;;;12.43;5.17;;;;;;;-3.24;74.98;101064.48;1478304;88;21332;-85
2022/01/07 04:22:47;;;;;;;11.45;5.45;;;;;;;-3.27;74.72;101064.58;1461354;88;21612;-84
2022/01/07 04:25:18;;;;;;;12.55;5.05;;;;;;;-3.32;75.14;101065.15;1445998;89;21429;-85
2022/01/07 04:27:57;;;;;;;12.75;4.30;;;;;;;-3.34;74.85;101067.37;1436569;86;21463;-82
2022/01/07 04:30:24;;;;;;;10.80;4.97;;;;;;;-3.36;74.93;101064.00;1411765;87;21611;-83
2022/01/07 04:32:52;;;;;;;9.20;3.80;;;;;;;-3.37;74.95;101065.72;1439844;88;21363;-82
2022/01/07 04:35:20;;;;;;;13.98;4.45;;;;;;;-3.42;75.07;101058.10;1438756;88;21350;-84
2022/01/07 04:37:46;;;;;;;13.03;4.95;;;;;;;-3.47;75.18;101059.96;1433579;87;22338;-85
2022/01/07 04:40:15;;;;;;;13.20;5.95;;;;;;;-3.50;75.19;101063.09;1440387;88;21356;-85
2022/01/07 04:42:42;;;;;;;11.12;4.33;;;;;;;-3.54;75.36;101062.75;1399599;89;21435;-85
2022/01/07 04:45:10;;;;;;;8.45;4.00;;;;;;;-3.54;75.48;101070.52;1448603;87;21428;-85
2022/01/07 04:47:38;;;;;;;8.68;3.72;;;;;;;-3.55;75.27;101074.00;1402553;88;21655;-85
2022/01/07 04:50:14;;;;;;;8.33;4.67;;;;;;;-3.57;75.88;101079.66;1424885;87;21406;-85
2022/01/07 04:52:44;;;;;;;9.15;4.15;;;;;;;-3.59;75.26;101077.58;1449320;88;22407;-85
2022/01/07 04:55:17;;;;;;;9.15;4.12;;;;;;;-3.58;75.25;101081.41;1449700;87;21560;-85
2022/01/07 04:57:44;;;;;;;9.83;4.33;;;;;;;-3.57;75.05;101087.42;1441060;87;21517;-85
2022/01/07 05:00:13;;;;;;;14.78;6.08;;;;;;;-3.63;75.06;101097.04;1420413;87;21615;-85
2022/01/07 05:02:39;;;;;;;15.45;6.70;;;;;;;-3.61;74.97;101103.94;1442966;88;21525;-85
2022/01/07 05:05:06;;;;;;;17.42;7.95;;;;;;;-3.65;75.09;101096.25;1449670;87;21473;-82
2022/01/07 05:07:34;;;;;;;19.40;8.53;;;;;;;-3.64;75.71;101094.06;1447778;87;21511;-82
2022/01/07 05:10:00;;;;;;;12.50;6.90;;;;;;;-3.67;76.26;101095.89;1456122;88;21421;-82
2022/01/07 05:12:26;;;;;;;18.65;9.70;;;;;;;-3.72;76.65;101099.88;1454429;88;21420;-83
2022/01/07 05:14:52;;;;;;;22.07;8.93;;;;;;;-3.72;76.30;101105.05;1449330;86;21369;-82
2022/01/07 05:17:18;;;;;;;19.15;8.10;;;;;;;-3.71;75.96;101111.95;1435466;87;21700;-82
2022/01/07 05:19:45;;;;;;;21.80;9.53;;;;;;;-3.72;75.59;101119.73;1388816;88;21414;-82
2022/01/07 05:22:11;;;;;;;19.05;7.50;;;;;;;-3.73;75.57;101120.63;1452005;88;21334;-83
2022/01/07 05:24:37;;;;;;;17.17;8.70;;;;;;;-3.74;75.80;101117.20;1466633;88;21481;-83
2022/01/07 05:27:04;;;;;;;19.55;8.68;;;;;;;-3.74;75.87;101122.38;1472606;87;21334;-82
2022/01/07 05:29:33;;;;;;;21.82;8.33;;;;;;;-3.76;75.71;101132.35;1487598;88;22220;-83
2022/01/07 05:31:58;;;;;;;18.55;7.22;;;;;;;-3.79;75.74;101133.28;1415924;87;22281;-81
2022/01/07 05:34:24;;;;;;;15.53;6.23;;;;;;;-3.82;75.90;101133.81;1462719;87;21363;-82
2022/01/07 05:36:50;;;;;;;36.08;10.53;;;;;;;-3.88;75.96;101125.76;1441969;88;21665;-81
2022/01/07 05:39:16;;;;;;;24.15;8.50;;;;;;;-3.93;76.70;101128.89;1440701;87;22240;-82
2022/01/07 05:41:42;;;;;;;22.60;7.62;;;;;;;-3.99;76.66;101129.90;1443835;87;21607;-82
2022/01/07 05:44:08;;;;;;;20.40;8.58;;;;;;;-4.02;76.23;101137.73;1454246;87;21451;-82
2022/01/07 05:46:35;;;;;;;15.35;6.53;;;;;;;-4.04;76.09;101136.06;1435648;87;21534;-81
2022/01/07 05:49:01;;;;;;;19.35;7.80;;;;;;;-4.08;77.58;101139.18;1443203;87;21333;-82
2022/01/07 05:51:27;;;;;;;15.50;7.20;;;;;;;-4.14;78.94;101139.33;1435062;88;21274;-82
2022/01/07 05:53:53;;;;;;;14.07;5.85;;;;;;;-4.16;78.98;101140.64;1448733;88;22448;-83
2022/01/07 05:56:19;;;;;;;15.40;7.17;;;;;;;-4.15;78.41;101146.20;1442943;87;21493;-85
2022/01/07 05:58:45;;;;;;;15.83;6.97;;;;;;;-4.12;78.28;101147.88;1440105;88;21401;-85
2022/01/07 06:01:12;;;;;;;16.48;6.53;;;;;;;-4.10;77.73;101152.13;1433914;88;22222;-84
2022/01/07 06:03:40;;;;;;;8.65;4.95;;;;;;;-4.13;77.71;101154.79;1434273;88;21357;-84
2022/01/07 06:06:08;;;;;;;17.12;6.05;;;;;;;-4.17;77.68;101151.88;1409599;88;21608;-84
2022/01/07 06:08:36;;;;;;;13.43;5.00;;;;;;;-4.17;77.66;101155.76;1434135;88;22227;-84
2022/01/07 06:11:02;;;;;;;19.02;6.67;;;;;;;-4.17;78.07;101157.05;1425995;88;21415;-83
2022/01/07 06:13:28;;;;;;;15.10;7.37;;;;;;;-4.17;77.80;101162.22;1437679;88;21361;-85
2022/01/07 06:15:54;;;;;;;14.00;5.25;;;;;;;-4.16;77.66;101162.62;1410280;88;21423;-86
2022/01/07 06:18:21;;;;;;;9.58;3.65;;;;;;;-4.20;78.33;101166.17;1419607;88;22286;-85
2022/01/07 06:20:47;;;;;;;8.43;3.95;;;;;;;-4.21;77.82;101164.91;1420017;88;21483;-85
2022/01/07 06:23:35;;;;;;;8.60;3.77;;;;;;;-4.26;77.58;101160.27;1425722;87;21398;-84
2022/01/07 06:26:01;;;;;;;10.08;5.15;;;;;;;-4.29;77.28;101163.78;1410346;87;21354;-85
2022/01/07 06:28:27;;;;;;;11.57;3.55;;;;;;;-4.22;77.06;101173.11;1423388;87;21532;-87
2022/01/07 06:30:54;;;;;;;8.98;4.58;;;;;;;-4.17;77.34;101180.73;1445510;87;21361;-85
2022/01/07 06:33:20;;;;;;;14.68;4.45;;;;;;;-4.13;76.85;101178.50;1443567;88;21360;-85
2022/01/07 06:35:46;;;;;;;11.75;4.72;;;;;;;-4.11;76.93;101177.59;1430824;88;21326;-86
2022/01/07 06:38:13;;;;;;;10.13;4.87;;;;;;;-4.05;77.17;101180.92;1408683;88;21354;-86
2022/01/07 06:40:39;;;;;;;8.53;4.67;;;;;;;-4.01;77.46;101183.38;1409077;90;21465;-86
2022/01/07 06:43:05;;;;;;;10.75;4.58;;;;;;;-3.97;77.35;101190.61;1396258;88;21361;-85
2022/01/07 06:45:31;;;;;;;15.03;4.17;;;;;;;-3.93;76.86;101192.26;1405006;88;21317;-85
2022/01/07 06:47:57;;;;;;;20.45;4.05;;;;;;;-3.91;76.92;101193.08;1422670;88;21347;-84
2022/01/07 06:50:23;;;;;;;11.65;4.12;;;;;;;-3.90;76.61;101196.06;1419422;88;21342;-85
2022/01/07 06:52:49;;;;;;;17.80;6.60;;;;;;;-3.88;76.76;101199.47;1435243;88;22686;-86
2022/01/07 06:55:15;;;;;;;11.78;6.20;;;;;;;-3.90;75.51;101193.47;1380664;88;21287;-84
2022/01/07 06:57:42;;;;;;;11.93;5.87;;;;;;;-3.91;75.28;101197.80;1402864;88;21346;-84
2022/01/07 07:00:09;;;;;;;15.78;6.87;;;;;;;-3.83;75.81;101204.06;1398014;89;21426;-85
2022/01/07 07:02:35;;;;;;;20.05;8.30;;;;;;;-3.76;75.86;101196.58;1422114;87;21599;-85
2022/01/07 07:05:01;;;;;;;13.10;5.78;;;;;;;-3.71;75.23;101195.15;1430167;88;21904;-82
2022/01/07 07:07:27;;;;;;;14.45;6.08;;;;;;;-3.64;74.19;101202.73;1396764;88;22537;-83
2022/01/07 07:09:54;;;;;;;12.20;6.62;;;;;;;-3.56;73.91;101206.42;1440736;88;21437;-84
2022/01/07 07:12:20;;;;;;;10.30;5.87;;;;;;;-3.51;72.56;101207.17;1420367;88;21385;-83
2022/01/07 07:14:46;;;;;;;9.35;4.90;;;;;;;-3.43;72.42;101209.54;1422259;88;21413;-84
2022/01/07 07:17:13;;;;;;;10.23;4.58;;;;;;;-3.37;72.28;101210.67;1439953;88;21347;-85
2022/01/07 07:19:39;;;;;;;12.35;4.55;;;;;;;-3.33;70.15;101207.13;1385824;88;21319;-83
2022/01/07 07:22:05;;;;;;;6.85;3.35;;;;;;;-3.25;70.14;101201.31;1412579;88;21458;-83
2022/01/07 07:24:31;;;;;;;11.65;5.00;;;;;;;-3.21;69.37;101200.33;1426315;87;21428;-84
2022/01/07 07:26:58;;;;;;;11.93;4.22;;;;;;;-3.10;68.84;101205.22;1415951;88;21545;-83
2022/01/07 07:29:24;;;;;;;19.02;6.55;;;;;;;-3.03;69.28;101198.97;1455244;87;21355;-83
2022/01/07 07:31:55;;;;;;;9.83;4.22;;;;;;;-2.92;68.79;101201.72;1431513;88;22272;-83
2022/01/07 07:34:32;;;;;;;14.78;6.90;;;;;;;-2.89;67.64;101197.30;1435952;88;21509;-83
2022/01/07 07:36:47;;;;;;;66.28;25.95;;;;;;;-2.76;68.38;101204.30;1399697;88;21453;-82
2022/01/07 07:39:15;;;;;;;97.33;34.05;;;;;;;-2.65;68.77;101203.96;1418171;88;21368;-83
2022/01/07 07:41:43;;;;;;;28.92;11.53;;;;;;;-2.54;68.51;101205.80;1420264;88;21376;-83
2022/01/07 07:44:09;;;;;;;73.47;30.45;;;;;;;-2.45;68.69;101210.70;1437949;87;21421;-82
2022/01/07 07:46:38;;;;;;;128.95;51.23;;;;;;;-2.37;68.14;101211.33;1417494;88;21369;-83
2022/01/07 07:49:05;;;;;;;21.30;10.48;;;;;;;-2.25;68.88;101213.16;1440690;87;21369;-83
2022/01/07 07:51:32;;;;;;;13.08;6.75;;;;;;;-2.17;67.82;101215.06;1441864;88;21316;-83
2022/01/07 07:53:58;;;;;;;15.58;6.83;;;;;;;-2.14;67.55;101214.97;1415815;88;21429;-82
2022/01/07 07:56:26;;;;;;;17.35;7.47;;;;;;;-2.10;66.63;101210.08;1421154;89;21377;-82
2022/01/07 07:58:53;;;;;;;11.90;5.05;;;;;;;-2.04;66.46;101203.42;1395119;89;21340;-82
2022/01/07 08:01:19;;;;;;;14.63;6.95;;;;;;;-2.01;65.31;101204.62;1410798;90;22834;-82
2022/01/07 08:03:46;;;;;;;15.50;5.72;;;;;;;-1.93;66.07;101206.50;1437776;89;21415;-82
2022/01/07 08:06:13;;;;;;;16.05;6.72;;;;;;;-1.88;65.92;101206.36;1437374;87;21421;-83
2022/01/07 08:08:39;;;;;;;20.82;9.23;;;;;;;-1.79;66.71;101212.55;1438225;88;22910;-82
2022/01/07 08:11:08;;;;;;;69.70;27.10;;;;;;;-1.67;66.16;101208.28;1427930;88;21458;-83
2022/01/07 08:16:20;;;;;;;17.87;7.40;;;;;;;-1.61;64.91;101203.34;1440166;88;21316;-83
2022/01/07 08:18:49;;;;;;;8.58;4.28;;;;;;;-1.60;64.52;101195.48;1377113;88;21438;-83
2022/01/07 08:21:17;;;;;;;13.62;7.03;;;;;;;-1.53;64.16;101196.56;1453540;88;21349;-81
2022/01/07 08:23:46;;;;;;;20.12;10.50;;;;;;;-1.51;63.48;101195.62;1386743;89;21345;-83
2022/01/07 08:26:15;;;;;;;8.78;4.10;;;;;;;-1.36;65.22;101195.09;1394568;89;21431;-83
2022/01/07 08:28:47;;;;;;;10.63;5.03;;;;;;;-1.31;64.07;101193.64;1428912;89;22324;-82
2022/01/07 08:31:23;;;;;;;9.13;3.83;;;;;;;-1.22;63.48;101192.47;1437306;88;22499;-82
2022/01/07 08:36:31;;;;;;;36.10;13.80;;;;;;;-1.13;62.28;101198.64;1435890;88;21452;-81
2022/01/07 08:38:58;;;;;;;14.80;6.95;;;;;;;-1.07;61.54;101196.28;1439142;88;21479;-82
2022/01/07 08:41:28;;;;;;;10.00;5.00;;;;;;;-0.97;63.35;101203.70;1404523;89;21579;-82
2022/01/07 08:43:55;;;;;;;12.88;6.75;;;;;;;-0.93;59.61;101200.53;1448945;88;22352;-82
2022/01/07 08:46:22;;;;;;;51.18;22.22;;;;;;;-0.85;59.78;101206.76;1449195;88;21561;-82
2022/01/07 08:48:48;;;;;;;13.83;6.00;;;;;;;-0.78;60.94;101212.95;1430158;88;21393;-81
2022/01/07 08:51:14;;;;;;;20.13;8.07;;;;;;;-0.74;59.91;101207.22;1418719;88;21489;-81
2022/01/07 08:53:41;;;;;;;97.07;41.43;;;;;;;-0.61;61.61;101211.04;1426770;87;22072;-81
2022/01/07 08:56:08;;;;;;;78.13;33.87;;;;;;;-0.46;62.32;101222.65;1413460;88;22771;-82
2022/01/07 08:58:35;;;;;;;78.43;33.77;;;;;;;-0.32;61.81;101226.00;1406911;88;21826;-82
2022/01/07 09:01:01;;;;;;;106.53;32.00;;;;;;;-0.21;60.86;101214.73;1439967;89;21563;-82
2022/01/07 09:03:27;;;;;;;248.97;78.83;;;;;;;-0.11;59.97;101221.29;1394096;87;22592;-83
2022/01/07 09:05:54;;;;;;;147.33;45.97;;;;;;;0.01;60.64;101225.16;1420167;88;21607;-82
2022/01/07 09:08:21;;;;;;;118.07;40.17;;;;;;;0.12;61.40;101222.14;1438237;87;21591;-82
2022/01/07 09:10:48;;;;;;;83.53;28.63;;;;;;;0.24;61.10;101212.98;1423755;89;21547;-83
2022/01/07 09:13:15;;;;;;;178.30;64.70;;;;;;;0.27;58.77;101212.40;1415920;89;21564;-83
2022/01/07 09:15:41;;;;;;;65.90;25.37;;;;;;;0.36;59.82;101211.17;1400336;90;21470;-84
2022/01/07 09:18:11;;;;;;;118.63;40.30;;;;;;;0.46;60.68;101207.27;1394061;88;21685;-83
2022/01/07 09:20:43;;;;;;;168.00;52.88;;;;;;;0.60;60.10;101205.39;1395819;87;21728;-83
2022/01/07 09:23:11;;;;;;;189.23;58.97;;;;;;;0.62;57.07;101193.16;1405274;89;21519;-83
2022/01/07 09:25:38;;;;;;;85.80;31.30;;;;;;;0.65;58.76;101193.02;1375927;88;21561;-85
2022/01/07 09:28:06;;;;;;;186.47;60.37;;;;;;;0.75;59.61;101191.73;1405058;88;21606;-85
2022/01/07 09:30:33;;;;;;;30.97;11.63;;;;;;;0.84;58.19;101186.11;1397057;88;21498;-84
2022/01/07 09:32:59;;;;;;;59.17;19.60;;;;;;;0.76;53.09;101182.14;1404202;89;21646;-85
2022/01/07 09:35:26;;;;;;;13.13;5.57;;;;;;;0.76;54.36;101184.28;1385156;87;21568;-85
2022/01/07 09:37:52;;;;;;;50.40;16.83;;;;;;;0.84;57.07;101190.02;1395745;88;21544;-84
2022/01/07 09:40:19;;;;;;;17.70;6.00;;;;;;;0.95;57.50;101195.20;1432063;87;22553;-84
2022/01/07 09:43:02;;;;;;;212.77;63.23;;;;;;;0.90;53.76;101185.00;1390258;86;21620;-83
2022/01/07 09:45:31;;;;;;;59.93;21.77;;;;;;;1.02;56.70;101179.70;1426073;87;21699;-83
2022/01/07 09:47:58;;;;;;;60.80;20.77;;;;;;;1.26;58.95;101174.67;1403305;88;21907;-83
2022/01/07 09:50:27;;;;;;;15.53;5.60;;;;;;;1.76;56.11;101174.09;1382574;88;21715;-84
2022/01/07 09:52:54;;;;;;;79.57;30.77;;;;;;;2.49;49.34;101170.09;1394045;88;22133;-84
2022/01/07 09:55:22;;;;;;;36.63;14.73;;;;;;;3.39;51.02;101163.19;1395920;88;22175;-83
2022/01/07 09:57:49;;;;;;;13.43;5.33;;;;;;;3.75;47.71;101162.10;1372481;90;21355;-83
2022/01/07 10:00:15;;;;;;;90.07;37.40;;;;;;;4.50;48.95;101155.99;1384106;88;22331;-83
2022/01/07 10:03:05;;;;;;;116.40;48.53;;;;;;;5.14;46.44;101143.85;1400875;89;21473;-83
2022/01/07 10:05:33;;;;;;;54.67;22.97;;;;;;;5.61;43.57;101142.19;1433024;89;21578;-84
2022/01/07 10:08:25;;;;;;;29.37;14.30;;;;;;;5.82;43.93;101139.95;1393269;88;22881;-83
2022/01/07 10:11:18;;;;;;;49.80;22.53;;;;;;;6.10;41.57;101139.02;1389610;89;22277;-84
2022/01/07 10:13:48;;;;;;;90.23;36.03;;;;;;;6.13;40.75;101137.11;1404720;89;21332;-84
2022/01/07 10:16:23;;;;;;;50.03;23.25;;;;;;;6.44;44.83;101135.91;1391166;89;21372;-85
2022/01/07 10:18:50;;;;;;;20.37;9.47;;;;;;;6.57;41.70;101139.41;1394919;89;22900;-86
2022/01/07 10:21:21;;;;;;;6.03;2.63;;;;;;;6.80;41.14;101143.57;1416593;89;21329;-85
2022/01/07 10:23:47;;;;;;;108.17;47.47;;;;;;;6.21;36.45;101135.66;1429758;89;21394;-84
2022/01/07 10:26:18;;;;;;;85.97;40.13;;;;;;;6.53;37.86;101133.52;1409485;88;21333;-85
2022/01/07 10:28:47;;;;;;;70.52;34.08;;;;;;;6.89;41.85;101133.72;1416139;87;22206;-84
2022/01/07 10:31:24;;;;;;;100.80;48.67;;;;;;;7.09;41.41;101129.22;1413959;90;23460;-84
2022/01/07 10:33:53;;;;;;;15.70;7.53;;;;;;;7.39;37.96;101127.98;1391665;90;22474;-84
2022/01/07 10:36:25;;;;;;;175.20;84.07;;;;;;;7.08;34.52;101122.73;1450021;87;21574;-84
2022/01/07 10:38:58;;;;;;;93.97;45.13;;;;;;;7.16;39.89;101134.44;1461261;87;21422;-83
2022/01/07 10:41:24;;;;;;;67.10;32.73;;;;;;;7.34;39.42;101131.44;1450483;88;21687;-83
2022/01/07 10:43:52;;;;;;;7.43;3.87;;;;;;;7.35;39.32;101133.95;1432069;89;21546;-84
2022/01/07 10:46:26;;;;;;;14.97;7.07;;;;;;;7.24;39.17;101129.92;1425872;89;21479;-83
2022/01/07 10:49:02;;;;;;;75.47;35.57;;;;;;;7.21;38.83;101122.24;1449961;86;21451;-83
2022/01/07 10:51:32;;;;;;;99.30;45.47;;;;;;;7.21;38.74;101122.24;1439557;88;21364;-83
2022/01/07 10:54:02;;;;;;;9.37;5.73;;;;;;;7.19;37.27;101116.23;1467741;87;21496;-84
2022/01/07 10:56:40;;;;;;;33.42;17.62;;;;;;;7.36;38.42;101107.14;1395134;88;21346;-83
2022/01/07 10:59:15;;;;;;;71.60;35.13;;;;;;;7.53;37.92;101108.08;1423855;87;21332;-83
2022/01/07 11:04:30;;;;;;;31.03;16.20;;;;;;;7.85;37.40;101102.23;1389187;90;21399;-84
2022/01/07 11:07:02;;;;;;;5.05;3.55;;;;;;;8.14;38.84;101100.92;1404145;90;21428;-84
2022/01/07 11:09:27;;;;;;;10.57;5.23;;;;;;;8.06;35.08;101094.06;1412342;89;22346;-84
2022/01/07 11:12:01;;;;;;;32.07;15.50;;;;;;;8.03;36.76;101095.62;1430250;89;21745;-84
2022/01/07 11:14:31;;;;;;;19.90;11.03;;;;;;;8.18;33.97;101092.78;1448798;90;22900;-84
2022/01/07 11:17:04;;;;;;;14.38;8.03;;;;;;;8.31;34.57;101086.92;1458162;87;22258;-84
2022/01/07 11:19:36;;;;;;;10.17;5.43;;;;;;;8.32;33.73;101085.98;1420317;88;21358;-83
2022/01/07 11:22:04;;;;;;;8.80;5.27;;;;;;;8.16;32.50;101084.14;1431358;87;21480;-84
2022/01/07 11:27:28;;;;;;;35.23;20.70;;;;;;;8.07;35.02;101083.88;1379457;90;21391;-84
2022/01/07 11:30:03;;;;;;;6.50;3.47;;;;;;;8.14;35.61;101085.11;1415241;89;22521;-84
2022/01/07 11:32:46;;;;;;;11.53;6.87;;;;;;;7.91;35.61;101087.28;1376442;90;21420;-85
2022/01/07 11:35:24;;;;;;;6.60;3.83;;;;;;;8.04;35.11;101078.84;1368257;91;22285;-85
2022/01/07 11:38:03;;;;;;;8.67;5.00;;;;;;;7.89;32.80;101084.78;1416280;88;21340;-83
2022/01/07 11:40:48;;;;;;;5.80;2.90;;;;;;;7.84;36.17;101079.48;1392117;90;21281;-85